createdAt,value
2018-12-04T00:02:27.901Z,12.80
2018-12-04T00:04:56.294Z,12.70
2018-12-04T00:07:24.606Z,12.70
2018-12-04T00:09:53.294Z,12.80
2018-12-04T00:12:21.678Z,12.80
2018-12-04T00:14:50.059Z,12.80
2018-12-04T00:17:18.448Z,12.80
2018-12-04T00:19:46.919Z,12.80
2018-12-04T00:22:15.330Z,12.80
2018-12-04T00:24:43.911Z,12.80
2018-12-04T00:27:12.670Z,12.80
2018-12-04T00:29:40.990Z,12.80
2018-12-04T00:32:09.266Z,12.80
2018-12-04T00:34:37.618Z,12.80
2018-12-04T00:37:05.938Z,12.80
2018-12-04T00:39:34.365Z,12.80
2018-12-04T00:42:03.255Z,12.80
2018-12-04T00:44:31.502Z,12.80
2018-12-04T00:46:59.987Z,12.80
2018-12-04T00:49:28.419Z,12.80
2018-12-04T00:51:56.770Z,12.80
2018-12-04T00:54:25.155Z,12.80
2018-12-04T00:56:53.646Z,12.80
2018-12-04T00:59:22.042Z,12.80
2018-12-04T01:01:50.416Z,12.80
2018-12-04T01:04:18.838Z,12.80
2018-12-04T01:06:47.111Z,12.80
2018-12-04T01:09:15.445Z,12.80
2018-12-04T01:11:43.964Z,12.80
2018-12-04T01:14:12.322Z,12.80
2018-12-04T01:16:40.716Z,12.80
2018-12-04T01:19:09.153Z,12.80
2018-12-04T01:21:37.854Z,12.80
2018-12-04T01:24:06.326Z,12.80
2018-12-04T01:26:36.380Z,12.80
2018-12-04T01:29:04.761Z,12.80
2018-12-04T01:31:33.107Z,12.80
2018-12-04T01:34:01.361Z,12.90
2018-12-04T01:36:29.800Z,12.90
2018-12-04T01:38:58.308Z,12.90
2018-12-04T01:41:26.818Z,12.90
2018-12-04T01:43:55.309Z,12.90
2018-12-04T01:46:23.640Z,12.90
2018-12-04T01:48:52.010Z,12.90
2018-12-04T01:51:20.337Z,12.90
2018-12-04T01:53:48.643Z,12.90
2018-12-04T01:56:17.054Z,12.90
2018-12-04T01:58:45.417Z,12.90
2018-12-04T02:01:13.671Z,12.90
2018-12-04T02:03:42.050Z,12.90
2018-12-04T02:06:10.463Z,12.90
2018-12-04T02:08:38.872Z,12.90
2018-12-04T02:11:07.221Z,12.90
2018-12-04T02:13:35.590Z,12.90
2018-12-04T02:16:04.027Z,12.90
2018-12-04T02:18:32.386Z,12.90
2018-12-04T02:21:00.917Z,12.90
2018-12-04T02:23:29.245Z,12.90
2018-12-04T02:25:57.606Z,12.90
2018-12-04T02:28:30.527Z,12.90
2018-12-04T02:30:59.029Z,12.90
2018-12-04T02:33:27.732Z,12.90
2018-12-04T02:35:56.263Z,12.90
2018-12-04T02:38:24.607Z,12.90
2018-12-04T02:40:52.890Z,12.90
2018-12-04T02:43:21.167Z,12.90
2018-12-04T02:45:49.487Z,12.90
2018-12-04T02:48:17.870Z,12.90
2018-12-04T02:50:46.182Z,12.90
2018-12-04T02:53:14.693Z,12.90
2018-12-04T02:55:43.039Z,12.90
2018-12-04T02:58:11.525Z,12.90
2018-12-04T03:00:39.916Z,12.90
2018-12-04T03:03:08.699Z,12.90
2018-12-04T03:05:37.031Z,13.00
2018-12-04T03:08:05.364Z,12.90
2018-12-04T03:10:33.706Z,12.90
2018-12-04T03:13:02.221Z,12.90
2018-12-04T03:15:30.517Z,12.90
2018-12-04T03:17:58.841Z,12.90
2018-12-04T03:20:27.134Z,12.90
2018-12-04T03:22:55.403Z,12.90
2018-12-04T03:25:24.222Z,12.90
2018-12-04T03:27:52.873Z,12.90
2018-12-04T03:30:21.738Z,12.90
2018-12-04T03:32:50.199Z,12.90
2018-12-04T03:35:18.579Z,12.90
2018-12-04T03:37:46.997Z,12.80
2018-12-04T03:40:15.487Z,12.80
2018-12-04T03:42:43.938Z,12.80
2018-12-04T03:45:12.423Z,12.80
2018-12-04T03:47:40.866Z,12.80
2018-12-04T03:50:09.218Z,12.80
2018-12-04T03:52:37.973Z,12.80
2018-12-04T03:55:06.499Z,12.80
2018-12-04T03:57:34.900Z,12.80
2018-12-04T04:00:04.241Z,12.70
2018-12-04T04:02:32.740Z,12.70
2018-12-04T04:05:01.046Z,12.70
2018-12-04T04:07:29.465Z,12.70
2018-12-04T04:09:58.114Z,12.60
2018-12-04T04:12:26.505Z,12.60
2018-12-04T04:14:54.858Z,12.60
2018-12-04T04:17:23.255Z,12.70
2018-12-04T04:19:51.695Z,12.70
2018-12-04T04:22:20.154Z,12.60
2018-12-04T04:24:48.643Z,12.60
2018-12-04T04:27:17.227Z,12.60
2018-12-04T04:29:45.612Z,12.60
2018-12-04T04:32:14.101Z,12.70
2018-12-04T04:34:42.509Z,12.60
2018-12-04T04:37:10.893Z,12.60
2018-12-04T04:39:39.249Z,12.60
2018-12-04T04:42:07.698Z,12.70
2018-12-04T04:44:36.043Z,12.60
2018-12-04T04:47:04.395Z,12.60
2018-12-04T04:49:32.861Z,12.70
2018-12-04T04:52:01.112Z,12.60
2018-12-04T04:54:29.557Z,12.70
2018-12-04T04:56:57.943Z,12.60
2018-12-04T04:59:26.376Z,12.70
2018-12-04T05:01:54.806Z,12.70
2018-12-04T05:04:23.062Z,12.60
2018-12-04T05:06:51.310Z,12.70
2018-12-04T05:09:19.755Z,12.70
2018-12-04T05:11:48.377Z,12.70
2018-12-04T05:14:16.814Z,12.70
2018-12-04T05:16:45.182Z,12.70
2018-12-04T05:19:13.714Z,12.70
2018-12-04T05:21:42.424Z,12.70
2018-12-04T05:24:11.023Z,12.70
2018-12-04T05:26:39.954Z,12.70
2018-12-04T05:29:08.378Z,12.70
2018-12-04T05:31:38.371Z,12.70
2018-12-04T05:34:06.806Z,12.70
2018-12-04T05:36:36.552Z,12.80
2018-12-04T05:39:07.214Z,12.80
2018-12-04T05:41:37.192Z,12.80
2018-12-04T05:44:05.606Z,12.80
2018-12-04T05:46:33.926Z,12.80
2018-12-04T05:49:02.287Z,12.80
2018-12-04T05:51:30.722Z,12.80
2018-12-04T05:53:59.254Z,12.80
2018-12-04T05:56:27.558Z,12.80
2018-12-04T05:58:56.040Z,12.80
2018-12-04T06:01:24.802Z,12.80
2018-12-04T06:03:53.257Z,12.80
2018-12-04T06:06:21.699Z,12.80
2018-12-04T06:08:50.086Z,12.80
2018-12-04T06:11:22.577Z,12.80
2018-12-04T06:13:50.935Z,12.80
2018-12-04T06:16:19.427Z,12.70
2018-12-04T06:18:48.170Z,12.70
2018-12-04T06:21:16.887Z,12.70
2018-12-04T06:23:45.371Z,12.70
2018-12-04T06:26:13.706Z,12.70
2018-12-04T06:28:42.050Z,12.70
2018-12-04T06:31:10.434Z,12.70
2018-12-04T06:33:38.860Z,12.70
2018-12-04T06:36:07.321Z,12.70
2018-12-04T06:38:35.709Z,12.70
2018-12-04T06:41:04.074Z,12.70
2018-12-04T06:43:32.482Z,12.70
2018-12-04T06:46:00.954Z,12.70
2018-12-04T06:48:29.302Z,12.60
2018-12-04T06:50:57.546Z,12.60
2018-12-04T06:53:25.953Z,12.60
2018-12-04T06:55:54.229Z,12.60
2018-12-04T06:58:22.526Z,12.60
2018-12-04T07:00:51.258Z,12.60
2018-12-04T07:03:19.551Z,12.60
2018-12-04T07:05:52.182Z,12.60
2018-12-04T07:08:20.591Z,12.60
2018-12-04T07:10:49.055Z,12.60
2018-12-04T07:13:17.626Z,12.60
2018-12-04T07:15:45.999Z,12.60
2018-12-04T07:18:14.654Z,12.60
2018-12-04T07:20:43.130Z,12.60
2018-12-04T07:23:12.026Z,12.60
2018-12-04T07:25:40.482Z,12.60
2018-12-04T07:28:08.894Z,12.70
2018-12-04T07:30:37.651Z,12.70
2018-12-04T07:33:06.363Z,12.70
2018-12-04T07:35:34.726Z,12.70
2018-12-04T07:38:03.145Z,12.70
2018-12-04T07:40:31.476Z,12.70
2018-12-04T07:42:59.996Z,12.70
2018-12-04T07:45:28.887Z,12.80
2018-12-04T07:47:57.236Z,12.70
2018-12-04T07:50:25.578Z,12.80
2018-12-04T07:52:53.896Z,12.80
2018-12-04T07:55:22.391Z,12.80
2018-12-04T07:57:50.778Z,12.80
2018-12-04T08:00:19.814Z,12.80
2018-12-04T08:02:48.098Z,12.80
2018-12-04T08:05:16.464Z,12.80
2018-12-04T08:07:45.019Z,12.80
2018-12-04T08:10:13.354Z,12.80
2018-12-04T08:12:41.991Z,12.90
2018-12-04T08:15:10.380Z,12.90
2018-12-04T08:17:38.845Z,12.90
2018-12-04T08:20:08.228Z,12.90
2018-12-04T08:22:36.651Z,12.90
2018-12-04T08:25:05.454Z,12.90
2018-12-04T08:27:36.366Z,13.00
2018-12-04T08:30:06.439Z,13.00
2018-12-04T08:32:34.782Z,13.00
2018-12-04T08:35:03.374Z,13.10
2018-12-04T08:37:31.822Z,13.00
2018-12-04T08:40:00.094Z,13.10
2018-12-04T08:42:28.615Z,13.10
2018-12-04T08:44:57.002Z,13.10
2018-12-04T08:47:25.439Z,13.10
2018-12-04T08:49:54.092Z,13.20
2018-12-04T08:52:22.481Z,13.20
2018-12-04T08:54:50.907Z,13.30
2018-12-04T08:57:19.292Z,13.30
2018-12-04T08:59:47.738Z,13.30
2018-12-04T09:02:16.225Z,13.40
2018-12-04T09:04:44.582Z,13.40
2018-12-04T09:07:12.947Z,13.40
2018-12-04T09:09:41.532Z,13.40
2018-12-04T09:12:09.937Z,13.40
2018-12-04T09:15:00.346Z,13.40
2018-12-04T09:17:28.843Z,13.40
2018-12-04T09:19:57.396Z,13.50
2018-12-04T09:22:26.101Z,13.50
2018-12-04T09:24:54.696Z,13.60
2018-12-04T09:27:23.105Z,13.60
2018-12-04T09:29:51.510Z,13.60
2018-12-04T09:32:19.984Z,13.60
2018-12-04T09:34:48.554Z,13.70
2018-12-04T09:37:17.082Z,13.70
2018-12-04T09:39:45.388Z,13.70
2018-12-04T09:42:14.153Z,13.80
2018-12-04T09:44:42.859Z,13.70
2018-12-04T09:47:11.150Z,13.70
2018-12-04T09:49:39.531Z,13.70
2018-12-04T09:52:08.157Z,13.70
2018-12-04T09:54:36.616Z,13.80
2018-12-04T09:57:05.065Z,13.70
2018-12-04T09:59:33.374Z,13.80
2018-12-04T10:02:01.890Z,13.80
2018-12-04T10:04:30.261Z,13.80
2018-12-04T10:06:58.836Z,13.70
2018-12-04T10:09:27.275Z,13.70
2018-12-04T10:11:55.588Z,13.80
2018-12-04T10:14:39.072Z,13.80
2018-12-04T10:17:07.501Z,13.80
2018-12-04T10:19:35.915Z,13.80
2018-12-04T10:22:04.335Z,13.70
2018-12-04T10:24:32.759Z,13.80
2018-12-04T10:27:01.495Z,13.90
2018-12-04T10:29:30.198Z,14.20
2018-12-04T10:31:58.955Z,14.50
2018-12-04T10:34:27.373Z,14.80
2018-12-04T10:36:55.855Z,15.00
2018-12-04T10:39:24.154Z,15.30
2018-12-04T10:41:52.533Z,15.70
2018-12-04T10:44:21.101Z,15.90
2018-12-04T10:46:49.526Z,16.00
2018-12-04T10:49:18.340Z,16.00
2018-12-04T10:51:46.747Z,16.00
2018-12-04T10:54:15.124Z,16.00
2018-12-04T10:56:43.665Z,15.80
2018-12-04T10:59:12.127Z,15.70
2018-12-04T11:01:46.016Z,15.70
2018-12-04T11:04:14.346Z,15.70
2018-12-04T11:06:43.539Z,15.60
2018-12-04T11:09:11.994Z,15.50
2018-12-04T11:11:40.662Z,15.50
2018-12-04T11:14:08.978Z,15.50
2018-12-04T11:16:38.375Z,15.50
2018-12-04T11:19:06.856Z,15.40
2018-12-04T11:21:36.456Z,15.40
2018-12-04T11:24:04.891Z,15.30
2018-12-04T11:26:33.185Z,15.40
2018-12-04T11:29:01.838Z,15.30
2018-12-04T11:31:30.293Z,15.30
2018-12-04T11:33:58.703Z,15.20
2018-12-04T11:36:26.972Z,15.30
2018-12-04T11:38:55.614Z,15.20
2018-12-04T11:41:23.945Z,15.20
2018-12-04T11:43:52.354Z,15.20
2018-12-04T11:46:20.697Z,15.20
2018-12-04T11:48:49.083Z,15.10
2018-12-04T11:51:17.407Z,15.10
2018-12-04T11:53:45.753Z,15.10
2018-12-04T11:56:14.101Z,15.10
2018-12-04T11:58:42.686Z,15.10
2018-12-04T12:01:13.734Z,15.10
2018-12-04T12:03:42.270Z,15.10
2018-12-04T12:06:10.678Z,15.10
2018-12-04T12:08:39.563Z,15.20
2018-12-04T12:11:08.215Z,15.20
2018-12-04T12:13:36.507Z,15.10
2018-12-04T12:16:04.930Z,15.20
2018-12-04T12:18:33.323Z,15.20
2018-12-04T12:21:01.834Z,15.20
2018-12-04T12:23:30.138Z,15.20
2018-12-04T12:25:58.598Z,15.20
2018-12-04T12:28:27.507Z,15.20
2018-12-04T12:30:55.939Z,15.20
2018-12-04T12:33:24.583Z,15.20
2018-12-04T12:35:53.288Z,15.20
2018-12-04T12:38:21.883Z,15.20
2018-12-04T12:40:50.254Z,15.20
2018-12-04T12:43:18.542Z,15.20
2018-12-04T12:45:46.994Z,15.20
2018-12-04T12:48:15.798Z,15.10
2018-12-04T12:50:44.575Z,15.20
2018-12-04T12:53:13.374Z,15.20
2018-12-04T12:55:41.787Z,15.20
2018-12-04T12:58:10.171Z,15.20
2018-12-04T13:00:38.427Z,15.20
2018-12-04T13:03:06.786Z,15.30
2018-12-04T13:05:35.234Z,15.30
2018-12-04T13:08:03.779Z,15.40
2018-12-04T13:10:32.074Z,15.40
2018-12-04T13:13:00.477Z,15.40
2018-12-04T13:15:47.992Z,15.40
2018-12-04T13:18:16.468Z,15.40
2018-12-04T13:20:44.888Z,15.50
2018-12-04T13:23:13.328Z,15.50
2018-12-04T13:25:41.733Z,15.50
2018-12-04T13:28:10.241Z,15.50
2018-12-04T13:30:38.774Z,15.40
2018-12-04T13:33:07.165Z,15.50
2018-12-04T13:35:35.600Z,15.50
2018-12-04T13:38:04.002Z,15.40
2018-12-04T13:40:32.535Z,15.40
2018-12-04T13:43:01.072Z,15.40
2018-12-04T13:45:29.493Z,15.40
2018-12-04T13:48:00.852Z,15.40
2018-12-04T13:50:28.566Z,15.40
2018-12-04T13:52:56.995Z,15.40
2018-12-04T13:55:25.420Z,15.40
2018-12-04T13:57:53.885Z,15.40
2018-12-04T14:00:22.770Z,15.30
2018-12-04T14:02:51.192Z,15.30
2018-12-04T14:05:19.534Z,15.20
2018-12-04T14:07:47.900Z,15.20
2018-12-04T14:10:16.259Z,15.20
2018-12-04T14:12:44.879Z,15.20
2018-12-04T14:15:45.075Z,15.20
2018-12-04T14:18:13.537Z,15.20
2018-12-04T14:20:41.927Z,15.20
2018-12-04T14:23:10.369Z,15.20
2018-12-04T14:25:38.778Z,15.20
2018-12-04T14:28:07.264Z,15.20
2018-12-04T14:30:35.702Z,15.20
2018-12-04T14:33:04.020Z,15.30
2018-12-04T14:35:32.397Z,15.30
2018-12-04T14:38:00.915Z,15.40
2018-12-04T14:40:29.355Z,15.40
2018-12-04T14:42:57.665Z,15.40
2018-12-04T14:45:26.159Z,15.40
2018-12-04T14:47:54.561Z,15.40
2018-12-04T14:50:23.413Z,15.40
2018-12-04T14:52:51.819Z,15.40
2018-12-04T14:55:20.665Z,15.40
2018-12-04T14:57:48.903Z,15.40
2018-12-04T15:00:17.411Z,15.40
2018-12-04T15:02:46.024Z,15.50
2018-12-04T15:05:14.395Z,15.50
2018-12-04T15:07:42.730Z,15.50
2018-12-04T15:10:11.363Z,15.50
2018-12-04T15:12:39.714Z,15.50
2018-12-04T15:15:36.352Z,15.50
2018-12-04T15:18:05.023Z,15.50
2018-12-04T15:20:33.680Z,15.40
2018-12-04T15:23:02.508Z,15.30
2018-12-04T15:25:31.110Z,15.30
2018-12-04T15:27:59.626Z,15.20
2018-12-04T15:30:28.029Z,15.20
2018-12-04T15:32:56.460Z,15.10
2018-12-04T15:35:24.902Z,15.10
2018-12-04T15:37:53.314Z,15.00
2018-12-04T15:40:22.323Z,15.00
2018-12-04T15:42:50.805Z,14.90
2018-12-04T15:45:19.318Z,14.90
2018-12-04T15:47:47.722Z,14.80
2018-12-04T15:50:16.142Z,14.90
2018-12-04T15:52:44.556Z,14.80
2018-12-04T15:55:13.105Z,14.70
2018-12-04T15:57:41.458Z,14.70
2018-12-04T16:00:10.786Z,14.60
2018-12-04T16:02:39.391Z,14.60
2018-12-04T16:05:09.070Z,14.60
2018-12-04T16:07:37.465Z,14.50
2018-12-04T16:10:09.032Z,14.50
2018-12-04T16:12:37.529Z,14.40
2018-12-04T16:18:12.902Z,14.40
2018-12-04T16:20:41.602Z,14.30
2018-12-04T16:23:09.882Z,14.30
2018-12-04T16:25:38.592Z,14.20
2018-12-04T16:28:06.995Z,14.20
2018-12-04T16:30:35.357Z,14.20
2018-12-04T16:33:03.767Z,14.10
2018-12-04T16:35:32.097Z,14.10
2018-12-04T16:38:00.504Z,14.10
2018-12-04T16:40:28.891Z,14.10
2018-12-04T16:42:57.297Z,14.00
2018-12-04T16:45:25.604Z,14.00
2018-12-04T16:47:54.300Z,14.00
2018-12-04T16:50:23.402Z,13.90
2018-12-04T16:52:51.717Z,13.90
2018-12-04T16:55:20.678Z,13.90
2018-12-04T16:57:49.039Z,13.80
2018-12-04T17:00:17.789Z,13.80
2018-12-04T17:02:46.430Z,13.80
2018-12-04T17:05:14.891Z,13.80
2018-12-04T17:07:43.615Z,13.80
2018-12-04T17:10:12.223Z,13.70
2018-12-04T17:12:41.203Z,13.70
2018-12-04T17:18:37.838Z,13.70
2018-12-04T17:21:05.118Z,13.60
2018-12-04T17:23:33.525Z,13.60
2018-12-04T17:26:02.178Z,13.60
2018-12-04T17:28:30.586Z,13.60
2018-12-04T17:30:59.058Z,13.60
2018-12-04T17:33:28.166Z,13.60
2018-12-04T17:35:56.475Z,13.50
2018-12-04T17:38:24.869Z,13.50
2018-12-04T17:40:53.257Z,13.50
2018-12-04T17:43:21.633Z,13.50
2018-12-04T17:45:50.126Z,13.50
2018-12-04T17:48:18.766Z,13.40
2018-12-04T17:50:47.285Z,13.30
2018-12-04T17:53:15.730Z,13.30
2018-12-04T17:55:44.058Z,13.30
2018-12-04T17:58:12.423Z,13.30
2018-12-04T18:00:41.157Z,13.30
2018-12-04T18:03:09.740Z,13.20
2018-12-04T18:05:38.148Z,13.20
2018-12-04T18:08:06.474Z,13.20
2018-12-04T18:10:34.922Z,13.10
2018-12-04T18:13:03.629Z,13.10
2018-12-04T18:16:10.489Z,13.10
2018-12-04T18:18:38.957Z,13.10
2018-12-04T18:21:07.322Z,13.10
2018-12-04T18:23:35.591Z,13.10
2018-12-04T18:26:04.006Z,13.10
2018-12-04T18:28:32.538Z,13.10
2018-12-04T18:31:01.094Z,13.00
2018-12-04T18:33:29.486Z,13.00
2018-12-04T18:35:58.390Z,13.00
2018-12-04T18:38:27.029Z,13.00
2018-12-04T18:40:56.704Z,13.00
2018-12-04T18:43:26.802Z,13.00
2018-12-04T18:45:55.639Z,12.90
2018-12-04T18:48:24.002Z,12.90
2018-12-04T18:50:52.724Z,12.90
2018-12-04T18:53:21.117Z,12.90
2018-12-04T18:55:49.536Z,12.90
2018-12-04T18:58:17.892Z,12.90
2018-12-04T19:00:46.418Z,12.90
2018-12-04T19:03:14.726Z,12.90
2018-12-04T19:05:43.007Z,12.90
2018-12-04T19:08:11.399Z,12.90
2018-12-04T19:10:39.755Z,12.90
2018-12-04T19:13:08.234Z,12.90
2018-12-04T19:18:57.405Z,12.80
2018-12-04T19:21:25.791Z,12.80
2018-12-04T19:23:54.308Z,12.70
2018-12-04T19:26:22.967Z,12.70
2018-12-04T19:28:53.424Z,12.70
2018-12-04T19:31:21.825Z,12.70
2018-12-04T19:33:50.199Z,12.70
2018-12-04T19:36:18.707Z,12.60
2018-12-04T19:38:47.122Z,12.60
2018-12-04T19:41:15.465Z,12.60
2018-12-04T19:43:43.916Z,12.60
2018-12-04T19:46:12.427Z,12.50
2018-12-04T19:48:41.055Z,12.50
2018-12-04T19:51:09.483Z,12.50
2018-12-04T19:53:38.537Z,12.50
2018-12-04T19:56:06.865Z,12.50
2018-12-04T19:58:35.362Z,12.40
2018-12-04T20:01:03.722Z,12.40
2018-12-04T20:03:32.075Z,12.40
2018-12-04T20:06:00.418Z,12.40
2018-12-04T20:08:33.137Z,12.40
2018-12-04T20:11:01.538Z,12.40
2018-12-04T20:13:29.959Z,12.40
2018-12-04T20:16:31.703Z,12.40
2018-12-04T20:19:00.149Z,12.30
2018-12-04T20:21:28.783Z,12.30
2018-12-04T20:23:57.122Z,12.30
2018-12-04T20:26:25.516Z,12.30
2018-12-04T20:28:54.026Z,12.30
2018-12-04T20:31:27.886Z,12.30
2018-12-04T20:34:00.830Z,12.30
2018-12-04T20:36:33.755Z,12.20
2018-12-04T20:39:08.224Z,12.20
2018-12-04T20:41:38.002Z,12.20
2018-12-04T20:44:07.353Z,12.20
2018-12-04T20:46:38.531Z,12.20
2018-12-04T20:49:12.370Z,12.20
2018-12-04T20:51:46.837Z,12.10
2018-12-04T20:54:15.342Z,12.10
2018-12-04T20:56:44.029Z,12.10
2018-12-04T20:59:12.451Z,12.00
2018-12-04T21:01:41.021Z,12.00
2018-12-04T21:04:09.458Z,12.00
2018-12-04T21:06:39.624Z,12.10
2018-12-04T21:09:08.526Z,12.00
2018-12-04T21:11:38.987Z,12.00
2018-12-04T21:14:07.428Z,11.90
2018-12-04T21:16:42.476Z,12.00
2018-12-04T21:19:10.796Z,12.00
2018-12-04T21:21:40.316Z,12.00
2018-12-04T21:24:08.794Z,12.00
2018-12-04T21:27:11.418Z,12.00
2018-12-04T21:29:42.783Z,11.90
2018-12-04T21:32:16.552Z,11.90
2018-12-04T21:34:50.471Z,11.90
2018-12-04T21:37:24.142Z,11.90
2018-12-04T21:39:57.843Z,11.80
2018-12-04T21:42:31.759Z,11.80
2018-12-04T21:45:05.724Z,11.80
2018-12-04T21:47:39.538Z,11.80
2018-12-04T21:50:08.123Z,11.80
2018-12-04T21:52:36.422Z,11.80
2018-12-04T21:55:04.824Z,11.80
2018-12-04T21:57:33.274Z,11.70
2018-12-04T22:00:01.655Z,11.70
2018-12-04T22:02:30.188Z,11.70
2018-12-04T22:04:58.578Z,11.60
2018-12-04T22:07:26.938Z,11.60
2018-12-04T22:09:55.462Z,11.60
2018-12-04T22:12:24.051Z,11.60
2018-12-04T22:15:29.945Z,11.60
2018-12-04T22:17:58.290Z,11.70
2018-12-04T22:20:27.378Z,11.70
2018-12-04T22:22:56.681Z,11.60
2018-12-04T22:25:25.005Z,11.50
2018-12-04T22:27:53.699Z,11.50
2018-12-04T22:30:22.357Z,11.40
2018-12-04T22:32:51.057Z,11.40
2018-12-04T22:35:19.487Z,11.40
2018-12-04T22:37:47.850Z,11.40
2018-12-04T22:40:16.524Z,11.40
2018-12-04T22:42:45.118Z,11.40
2018-12-04T22:45:19.271Z,11.40
2018-12-04T22:47:47.658Z,11.40
2018-12-04T22:50:16.495Z,11.40
2018-12-04T22:52:44.809Z,11.40
2018-12-04T22:55:13.127Z,11.40
2018-12-04T22:57:41.919Z,11.30
2018-12-04T23:00:23.531Z,11.30
2018-12-04T23:02:52.002Z,11.40
2018-12-04T23:05:20.458Z,11.40
2018-12-04T23:07:48.903Z,11.40
2018-12-04T23:10:17.630Z,11.40
2018-12-04T23:12:46.073Z,11.40
2018-12-04T23:15:14.547Z,11.30
2018-12-04T23:17:43.850Z,11.40
2018-12-04T23:20:13.358Z,11.40
2018-12-04T23:22:41.873Z,11.40
2018-12-04T23:25:10.618Z,11.30
2018-12-04T23:27:39.217Z,11.40
2018-12-04T23:30:08.246Z,11.40
2018-12-04T23:32:37.444Z,11.40
2018-12-04T23:35:07.603Z,11.40
2018-12-04T23:37:36.364Z,11.40
2018-12-04T23:40:06.553Z,11.40
2018-12-04T23:42:35.103Z,11.40
2018-12-04T23:45:04.594Z,11.40
2018-12-04T23:47:33.346Z,11.40
2018-12-04T23:50:03.105Z,11.30
2018-12-04T23:52:32.450Z,11.30
2018-12-04T23:55:00.876Z,11.20
2018-12-04T23:57:29.401Z,11.20
2018-12-04T23:59:57.953Z,11.30
